sensor_id;sensor_type;location;lat;lon;timestamp;temperature;humidity
13482;DHT22;6813;60.352;15.746;2024-02-26T00:01:52;3.80;99.90
13482;DHT22;6813;60.352;15.746;2024-02-26T00:04:18;3.80;99.90
13482;DHT22;6813;60.352;15.746;2024-02-26T00:06:43;3.80;99.90
13482;DHT22;6813;60.352;15.746;2024-02-26T00:09:10;3.80;99.90
13482;DHT22;6813;60.352;15.746;2024-02-26T00:11:36;3.90;99.90
13482;DHT22;6813;60.352;15.746;2024-02-26T00:14:02;3.80;99.90
13482;DHT22;6813;60.352;15.746;2024-02-26T00:16:28;3.70;99.90
13482;DHT22;6813;60.352;15.746;2024-02-26T00:18:54;3.70;99.90
13482;DHT22;6813;60.352;15.746;2024-02-26T00:21:19;3.60;99.90
13482;DHT22;6813;60.352;15.746;2024-02-26T00:23:45;3.40;99.90
13482;DHT22;6813;60.352;15.746;2024-02-26T00:26:11;3.40;99.90
13482;DHT22;6813;60.352;15.746;2024-02-26T00:28:37;3.40;99.90
13482;DHT22;6813;60.352;15.746;2024-02-26T00:31:03;3.20;99.90
13482;DHT22;6813;60.352;15.746;2024-02-26T00:33:29;3.20;99.90
13482;DHT22;6813;60.352;15.746;2024-02-26T00:35:54;3.10;99.90
13482;DHT22;6813;60.352;15.746;2024-02-26T00:38:20;3.00;99.90
13482;DHT22;6813;60.352;15.746;2024-02-26T00:40:46;2.90;99.90
13482;DHT22;6813;60.352;15.746;2024-02-26T00:43:13;2.90;99.90
13482;DHT22;6813;60.352;15.746;2024-02-26T00:45:39;2.70;99.90
13482;DHT22;6813;60.352;15.746;2024-02-26T00:48:05;2.70;99.90
13482;DHT22;6813;60.352;15.746;2024-02-26T00:50:31;2.50;99.90
13482;DHT22;6813;60.352;15.746;2024-02-26T00:52:57;2.40;99.90
13482;DHT22;6813;60.352;15.746;2024-02-26T00:55:22;2.40;99.90
13482;DHT22;6813;60.352;15.746;2024-02-26T00:57:48;2.40;99.90
13482;DHT22;6813;60.352;15.746;2024-02-26T01:00:14;2.50;99.90
13482;DHT22;6813;60.352;15.746;2024-02-26T01:02:40;2.40;99.90
13482;DHT22;6813;60.352;15.746;2024-02-26T01:05:07;2.40;99.90
13482;DHT22;6813;60.352;15.746;2024-02-26T01:07:35;2.30;99.90
13482;DHT22;6813;60.352;15.746;2024-02-26T01:10:01;2.20;99.90
13482;DHT22;6813;60.352;15.746;2024-02-26T01:12:27;2.10;99.90
13482;DHT22;6813;60.352;15.746;2024-02-26T01:14:53;2.20;99.90
13482;DHT22;6813;60.352;15.746;2024-02-26T01:17:19;2.20;99.90
13482;DHT22;6813;60.352;15.746;2024-02-26T01:19:44;1.90;99.90
13482;DHT22;6813;60.352;15.746;2024-02-26T01:22:10;1.70;99.90
13482;DHT22;6813;60.352;15.746;2024-02-26T01:24:35;1.90;99.90
13482;DHT22;6813;60.352;15.746;2024-02-26T01:27:01;1.90;99.90
13482;DHT22;6813;60.352;15.746;2024-02-26T01:29:27;2.00;99.90
13482;DHT22;6813;60.352;15.746;2024-02-26T01:31:52;2.20;99.90
13482;DHT22;6813;60.352;15.746;2024-02-26T01:34:18;2.30;99.90
13482;DHT22;6813;60.352;15.746;2024-02-26T01:36:44;2.30;99.90
13482;DHT22;6813;60.352;15.746;2024-02-26T01:39:09;2.40;99.90
13482;DHT22;6813;60.352;15.746;2024-02-26T01:41:38;2.50;99.90
13482;DHT22;6813;60.352;15.746;2024-02-26T01:44:05;2.50;99.90
13482;DHT22;6813;60.352;15.746;2024-02-26T01:46:31;2.40;99.90
13482;DHT22;6813;60.352;15.746;2024-02-26T01:48:58;2.40;99.90
13482;DHT22;6813;60.352;15.746;2024-02-26T01:51:24;2.30;99.90
13482;DHT22;6813;60.352;15.746;2024-02-26T01:53:50;2.30;99.90
13482;DHT22;6813;60.352;15.746;2024-02-26T01:56:17;2.20;99.90
13482;DHT22;6813;60.352;15.746;2024-02-26T01:58:44;2.20;99.90
13482;DHT22;6813;60.352;15.746;2024-02-26T02:01:10;2.20;99.90
13482;DHT22;6813;60.352;15.746;2024-02-26T02:03:37;2.20;99.90
13482;DHT22;6813;60.352;15.746;2024-02-26T02:06:03;2.30;99.90
13482;DHT22;6813;60.352;15.746;2024-02-26T02:08:29;2.30;99.90
13482;DHT22;6813;60.352;15.746;2024-02-26T02:10:55;2.20;99.90
13482;DHT22;6813;60.352;15.746;2024-02-26T02:13:21;2.20;99.90
13482;DHT22;6813;60.352;15.746;2024-02-26T02:15:47;2.20;99.90
13482;DHT22;6813;60.352;15.746;2024-02-26T02:18:13;2.20;99.90
13482;DHT22;6813;60.352;15.746;2024-02-26T02:20:38;2.10;99.90
13482;DHT22;6813;60.352;15.746;2024-02-26T02:23:04;2.00;99.90
13482;DHT22;6813;60.352;15.746;2024-02-26T02:25:30;2.00;99.90
13482;DHT22;6813;60.352;15.746;2024-02-26T02:27:56;2.10;99.90
13482;DHT22;6813;60.352;15.746;2024-02-26T02:30:25;2.10;99.90
13482;DHT22;6813;60.352;15.746;2024-02-26T02:32:52;1.90;99.90
13482;DHT22;6813;60.352;15.746;2024-02-26T02:35:18;1.90;99.90
13482;DHT22;6813;60.352;15.746;2024-02-26T02:37:44;2.00;99.90
13482;DHT22;6813;60.352;15.746;2024-02-26T02:40:10;1.80;99.90
13482;DHT22;6813;60.352;15.746;2024-02-26T02:42:35;1.70;99.90
13482;DHT22;6813;60.352;15.746;2024-02-26T02:45:01;1.80;99.90
13482;DHT22;6813;60.352;15.746;2024-02-26T02:47:27;1.90;99.90
13482;DHT22;6813;60.352;15.746;2024-02-26T02:49:52;1.80;99.90
13482;DHT22;6813;60.352;15.746;2024-02-26T02:52:18;1.80;99.90
13482;DHT22;6813;60.352;15.746;2024-02-26T02:54:44;1.90;99.90
13482;DHT22;6813;60.352;15.746;2024-02-26T02:57:09;1.90;99.90
13482;DHT22;6813;60.352;15.746;2024-02-26T02:59:36;1.60;99.90
13482;DHT22;6813;60.352;15.746;2024-02-26T03:02:02;1.50;99.90
13482;DHT22;6813;60.352;15.746;2024-02-26T03:04:27;1.50;99.90
13482;DHT22;6813;60.352;15.746;2024-02-26T03:06:54;1.60;99.90
13482;DHT22;6813;60.352;15.746;2024-02-26T03:09:20;1.50;99.90
13482;DHT22;6813;60.352;15.746;2024-02-26T03:11:46;1.30;99.90
13482;DHT22;6813;60.352;15.746;2024-02-26T03:14:11;1.20;99.90
13482;DHT22;6813;60.352;15.746;2024-02-26T03:16:37;1.30;99.90
13482;DHT22;6813;60.352;15.746;2024-02-26T03:19:03;1.40;99.90
13482;DHT22;6813;60.352;15.746;2024-02-26T03:21:29;1.40;99.90
13482;DHT22;6813;60.352;15.746;2024-02-26T03:23:55;1.40;99.90
13482;DHT22;6813;60.352;15.746;2024-02-26T03:26:20;1.40;99.90
13482;DHT22;6813;60.352;15.746;2024-02-26T03:28:47;1.30;99.90
13482;DHT22;6813;60.352;15.746;2024-02-26T03:31:13;1.30;99.90
13482;DHT22;6813;60.352;15.746;2024-02-26T03:33:38;1.20;99.90
13482;DHT22;6813;60.352;15.746;2024-02-26T03:36:04;1.20;99.90
13482;DHT22;6813;60.352;15.746;2024-02-26T03:38:30;1.10;99.90
13482;DHT22;6813;60.352;15.746;2024-02-26T03:40:56;0.90;99.90
13482;DHT22;6813;60.352;15.746;2024-02-26T03:43:21;0.80;99.90
13482;DHT22;6813;60.352;15.746;2024-02-26T03:45:47;0.70;99.90
13482;DHT22;6813;60.352;15.746;2024-02-26T03:48:13;0.60;99.90
13482;DHT22;6813;60.352;15.746;2024-02-26T03:50:39;0.60;99.90
13482;DHT22;6813;60.352;15.746;2024-02-26T03:53:05;0.60;99.90
13482;DHT22;6813;60.352;15.746;2024-02-26T03:55:30;0.50;99.90
13482;DHT22;6813;60.352;15.746;2024-02-26T03:57:56;0.50;99.90
13482;DHT22;6813;60.352;15.746;2024-02-26T04:00:22;0.50;99.90
13482;DHT22;6813;60.352;15.746;2024-02-26T04:02:48;0.50;99.90
13482;DHT22;6813;60.352;15.746;2024-02-26T04:05:14;0.60;99.90
13482;DHT22;6813;60.352;15.746;2024-02-26T04:07:43;0.80;99.90
13482;DHT22;6813;60.352;15.746;2024-02-26T04:10:09;0.90;99.90
13482;DHT22;6813;60.352;15.746;2024-02-26T04:12:35;1.10;99.90
13482;DHT22;6813;60.352;15.746;2024-02-26T04:15:01;1.10;99.90
13482;DHT22;6813;60.352;15.746;2024-02-26T04:17:26;1.10;99.90
13482;DHT22;6813;60.352;15.746;2024-02-26T04:19:52;1.20;99.90
13482;DHT22;6813;60.352;15.746;2024-02-26T04:22:18;1.20;99.90
13482;DHT22;6813;60.352;15.746;2024-02-26T04:24:43;1.30;99.90
13482;DHT22;6813;60.352;15.746;2024-02-26T04:27:09;1.40;99.90
13482;DHT22;6813;60.352;15.746;2024-02-26T04:29:35;1.60;99.90
13482;DHT22;6813;60.352;15.746;2024-02-26T04:32:00;1.60;99.90
13482;DHT22;6813;60.352;15.746;2024-02-26T04:34:26;1.50;99.90
13482;DHT22;6813;60.352;15.746;2024-02-26T04:36:51;1.50;99.90
13482;DHT22;6813;60.352;15.746;2024-02-26T04:39:17;1.60;99.90
13482;DHT22;6813;60.352;15.746;2024-02-26T04:41:43;1.70;99.90
13482;DHT22;6813;60.352;15.746;2024-02-26T04:44:09;1.90;99.90
13482;DHT22;6813;60.352;15.746;2024-02-26T04:46:35;1.90;99.90
13482;DHT22;6813;60.352;15.746;2024-02-26T04:49:01;1.90;99.90
13482;DHT22;6813;60.352;15.746;2024-02-26T04:51:26;2.00;99.90
13482;DHT22;6813;60.352;15.746;2024-02-26T04:53:52;2.00;99.90
13482;DHT22;6813;60.352;15.746;2024-02-26T04:56:22;2.10;99.90
13482;DHT22;6813;60.352;15.746;2024-02-26T04:58:48;2.00;99.90
13482;DHT22;6813;60.352;15.746;2024-02-26T05:01:15;2.00;99.90
13482;DHT22;6813;60.352;15.746;2024-02-26T05:03:42;2.00;99.90
13482;DHT22;6813;60.352;15.746;2024-02-26T05:06:08;1.90;99.90
13482;DHT22;6813;60.352;15.746;2024-02-26T05:08:34;1.90;99.90
13482;DHT22;6813;60.352;15.746;2024-02-26T05:11:02;1.80;99.90
13482;DHT22;6813;60.352;15.746;2024-02-26T05:13:31;1.80;99.90
13482;DHT22;6813;60.352;15.746;2024-02-26T05:15:57;1.90;99.90
13482;DHT22;6813;60.352;15.746;2024-02-26T05:18:23;1.90;99.90
13482;DHT22;6813;60.352;15.746;2024-02-26T05:20:49;1.90;99.90
13482;DHT22;6813;60.352;15.746;2024-02-26T05:23:14;2.00;99.90
13482;DHT22;6813;60.352;15.746;2024-02-26T05:25:40;1.90;99.90
13482;DHT22;6813;60.352;15.746;2024-02-26T05:28:07;1.80;99.90
13482;DHT22;6813;60.352;15.746;2024-02-26T05:30:32;1.90;99.90
13482;DHT22;6813;60.352;15.746;2024-02-26T05:32:58;1.80;99.90
13482;DHT22;6813;60.352;15.746;2024-02-26T05:35:25;1.90;99.90
13482;DHT22;6813;60.352;15.746;2024-02-26T05:37:51;1.90;99.90
13482;DHT22;6813;60.352;15.746;2024-02-26T05:40:17;1.90;99.90
13482;DHT22;6813;60.352;15.746;2024-02-26T05:42:42;1.90;99.90
13482;DHT22;6813;60.352;15.746;2024-02-26T05:45:10;1.90;99.90
13482;DHT22;6813;60.352;15.746;2024-02-26T05:47:36;1.90;99.90
13482;DHT22;6813;60.352;15.746;2024-02-26T05:50:08;2.00;99.90
13482;DHT22;6813;60.352;15.746;2024-02-26T05:52:39;2.00;99.90
13482;DHT22;6813;60.352;15.746;2024-02-26T05:55:05;2.10;99.90
13482;DHT22;6813;60.352;15.746;2024-02-26T05:57:32;2.10;99.90
13482;DHT22;6813;60.352;15.746;2024-02-26T05:59:58;2.10;99.90
13482;DHT22;6813;60.352;15.746;2024-02-26T06:02:31;2.10;99.90
13482;DHT22;6813;60.352;15.746;2024-02-26T06:04:57;2.20;99.90
13482;DHT22;6813;60.352;15.746;2024-02-26T06:07:23;2.20;99.90
13482;DHT22;6813;60.352;15.746;2024-02-26T06:09:49;2.30;99.90
13482;DHT22;6813;60.352;15.746;2024-02-26T06:12:14;2.20;99.90
13482;DHT22;6813;60.352;15.746;2024-02-26T06:14:41;2.30;99.90
13482;DHT22;6813;60.352;15.746;2024-02-26T06:17:07;2.30;99.90
13482;DHT22;6813;60.352;15.746;2024-02-26T06:19:33;2.40;99.90
13482;DHT22;6813;60.352;15.746;2024-02-26T06:21:59;2.40;99.90
13482;DHT22;6813;60.352;15.746;2024-02-26T06:24:24;2.40;99.90
13482;DHT22;6813;60.352;15.746;2024-02-26T06:26:50;2.50;99.90
13482;DHT22;6813;60.352;15.746;2024-02-26T06:29:16;2.50;99.90
13482;DHT22;6813;60.352;15.746;2024-02-26T06:31:41;2.50;99.90
13482;DHT22;6813;60.352;15.746;2024-02-26T06:34:07;2.60;99.90
13482;DHT22;6813;60.352;15.746;2024-02-26T06:36:32;2.60;99.90
13482;DHT22;6813;60.352;15.746;2024-02-26T06:38:58;2.50;99.90
13482;DHT22;6813;60.352;15.746;2024-02-26T06:41:24;2.50;99.90
13482;DHT22;6813;60.352;15.746;2024-02-26T06:43:53;2.50;99.90
13482;DHT22;6813;60.352;15.746;2024-02-26T06:46:19;2.20;99.90
13482;DHT22;6813;60.352;15.746;2024-02-26T06:48:45;2.20;99.90
13482;DHT22;6813;60.352;15.746;2024-02-26T06:51:10;2.20;99.90
13482;DHT22;6813;60.352;15.746;2024-02-26T06:53:36;2.20;99.90
13482;DHT22;6813;60.352;15.746;2024-02-26T06:56:02;2.20;99.90
13482;DHT22;6813;60.352;15.746;2024-02-26T06:58:27;2.20;99.90
13482;DHT22;6813;60.352;15.746;2024-02-26T07:00:53;2.20;99.90
13482;DHT22;6813;60.352;15.746;2024-02-26T07:03:19;2.20;99.90
13482;DHT22;6813;60.352;15.746;2024-02-26T07:05:44;2.20;99.90
13482;DHT22;6813;60.352;15.746;2024-02-26T07:08:11;2.10;99.90
13482;DHT22;6813;60.352;15.746;2024-02-26T07:10:37;2.00;99.90
13482;DHT22;6813;60.352;15.746;2024-02-26T07:13:02;1.90;99.90
13482;DHT22;6813;60.352;15.746;2024-02-26T07:15:29;1.90;99.90
13482;DHT22;6813;60.352;15.746;2024-02-26T07:17:54;1.90;99.90
13482;DHT22;6813;60.352;15.746;2024-02-26T07:20:20;2.00;99.90
13482;DHT22;6813;60.352;15.746;2024-02-26T07:22:46;2.00;99.90
13482;DHT22;6813;60.352;15.746;2024-02-26T07:25:11;2.00;99.90
13482;DHT22;6813;60.352;15.746;2024-02-26T07:27:39;2.10;99.90
13482;DHT22;6813;60.352;15.746;2024-02-26T07:30:06;2.20;99.90
13482;DHT22;6813;60.352;15.746;2024-02-26T07:32:34;2.30;99.90
13482;DHT22;6813;60.352;15.746;2024-02-26T07:35:00;2.30;99.90
13482;DHT22;6813;60.352;15.746;2024-02-26T07:37:25;2.30;99.90
13482;DHT22;6813;60.352;15.746;2024-02-26T07:39:51;2.40;99.90
13482;DHT22;6813;60.352;15.746;2024-02-26T07:42:16;2.50;99.90
13482;DHT22;6813;60.352;15.746;2024-02-26T07:44:42;2.60;99.90
13482;DHT22;6813;60.352;15.746;2024-02-26T07:47:09;2.60;99.90
13482;DHT22;6813;60.352;15.746;2024-02-26T07:49:35;2.70;99.90
13482;DHT22;6813;60.352;15.746;2024-02-26T07:52:00;2.70;99.90
13482;DHT22;6813;60.352;15.746;2024-02-26T07:54:26;2.70;99.90
13482;DHT22;6813;60.352;15.746;2024-02-26T07:56:52;2.70;99.90
13482;DHT22;6813;60.352;15.746;2024-02-26T07:59:18;2.80;99.90
13482;DHT22;6813;60.352;15.746;2024-02-26T08:01:43;2.80;99.90
13482;DHT22;6813;60.352;15.746;2024-02-26T08:04:09;2.70;99.90
13482;DHT22;6813;60.352;15.746;2024-02-26T08:06:35;2.80;99.90
13482;DHT22;6813;60.352;15.746;2024-02-26T08:09:00;2.90;99.90
13482;DHT22;6813;60.352;15.746;2024-02-26T08:11:26;3.00;99.90
13482;DHT22;6813;60.352;15.746;2024-02-26T08:13:53;3.10;99.90
13482;DHT22;6813;60.352;15.746;2024-02-26T08:16:19;3.10;99.90
13482;DHT22;6813;60.352;15.746;2024-02-26T08:18:44;3.20;99.90
13482;DHT22;6813;60.352;15.746;2024-02-26T08:21:10;3.20;99.90
13482;DHT22;6813;60.352;15.746;2024-02-26T08:23:36;3.20;99.90
13482;DHT22;6813;60.352;15.746;2024-02-26T08:26:01;3.20;99.90
13482;DHT22;6813;60.352;15.746;2024-02-26T08:28:29;3.20;99.90
13482;DHT22;6813;60.352;15.746;2024-02-26T08:30:54;3.10;99.90
13482;DHT22;6813;60.352;15.746;2024-02-26T08:33:20;3.00;99.90
13482;DHT22;6813;60.352;15.746;2024-02-26T08:35:46;2.80;99.90
13482;DHT22;6813;60.352;15.746;2024-02-26T08:38:11;2.80;99.90
13482;DHT22;6813;60.352;15.746;2024-02-26T08:40:37;2.70;99.90
13482;DHT22;6813;60.352;15.746;2024-02-26T08:43:03;2.80;99.90
13482;DHT22;6813;60.352;15.746;2024-02-26T08:45:28;3.00;99.90
13482;DHT22;6813;60.352;15.746;2024-02-26T08:47:54;3.10;99.90
13482;DHT22;6813;60.352;15.746;2024-02-26T08:50:19;3.20;99.90
13482;DHT22;6813;60.352;15.746;2024-02-26T08:52:45;3.10;99.90
13482;DHT22;6813;60.352;15.746;2024-02-26T08:55:15;3.10;99.90
13482;DHT22;6813;60.352;15.746;2024-02-26T08:57:41;3.30;99.90
13482;DHT22;6813;60.352;15.746;2024-02-26T09:00:07;3.30;99.90
13482;DHT22;6813;60.352;15.746;2024-02-26T09:02:33;3.30;99.90
13482;DHT22;6813;60.352;15.746;2024-02-26T09:04:58;3.40;99.90
13482;DHT22;6813;60.352;15.746;2024-02-26T09:07:24;3.50;99.90
13482;DHT22;6813;60.352;15.746;2024-02-26T09:09:50;3.50;99.90
13482;DHT22;6813;60.352;15.746;2024-02-26T09:12:16;3.50;99.90
13482;DHT22;6813;60.352;15.746;2024-02-26T09:14:42;3.60;99.90
13482;DHT22;6813;60.352;15.746;2024-02-26T09:17:07;3.60;99.90
13482;DHT22;6813;60.352;15.746;2024-02-26T09:19:33;3.70;99.90
13482;DHT22;6813;60.352;15.746;2024-02-26T09:21:59;3.50;99.90
13482;DHT22;6813;60.352;15.746;2024-02-26T09:24:25;3.40;99.90
13482;DHT22;6813;60.352;15.746;2024-02-26T09:26:51;3.30;99.90
13482;DHT22;6813;60.352;15.746;2024-02-26T09:29:17;3.30;99.90
13482;DHT22;6813;60.352;15.746;2024-02-26T09:31:43;3.20;99.90
13482;DHT22;6813;60.352;15.746;2024-02-26T09:34:12;3.10;99.90
13482;DHT22;6813;60.352;15.746;2024-02-26T09:36:38;3.10;99.90
13482;DHT22;6813;60.352;15.746;2024-02-26T09:39:03;3.20;99.90
13482;DHT22;6813;60.352;15.746;2024-02-26T09:41:30;3.10;99.90
13482;DHT22;6813;60.352;15.746;2024-02-26T09:43:57;3.20;99.90
13482;DHT22;6813;60.352;15.746;2024-02-26T09:46:25;3.30;99.90
13482;DHT22;6813;60.352;15.746;2024-02-26T09:48:51;3.40;99.90
13482;DHT22;6813;60.352;15.746;2024-02-26T09:51:17;3.40;99.90
13482;DHT22;6813;60.352;15.746;2024-02-26T09:53:44;3.50;99.90
13482;DHT22;6813;60.352;15.746;2024-02-26T09:56:12;3.50;99.90
13482;DHT22;6813;60.352;15.746;2024-02-26T09:58:39;3.50;99.90
13482;DHT22;6813;60.352;15.746;2024-02-26T10:01:11;3.60;99.90
13482;DHT22;6813;60.352;15.746;2024-02-26T10:03:40;3.70;99.90
13482;DHT22;6813;60.352;15.746;2024-02-26T10:06:10;3.60;99.90
13482;DHT22;6813;60.352;15.746;2024-02-26T10:08:36;3.70;99.90
13482;DHT22;6813;60.352;15.746;2024-02-26T10:11:06;3.70;99.90
13482;DHT22;6813;60.352;15.746;2024-02-26T10:13:32;3.70;99.90
13482;DHT22;6813;60.352;15.746;2024-02-26T10:15:58;3.60;99.90
13482;DHT22;6813;60.352;15.746;2024-02-26T10:18:24;3.70;99.90
13482;DHT22;6813;60.352;15.746;2024-02-26T10:21:08;3.70;99.90
13482;DHT22;6813;60.352;15.746;2024-02-26T10:23:33;3.70;99.90
13482;DHT22;6813;60.352;15.746;2024-02-26T10:25:59;3.80;99.90
13482;DHT22;6813;60.352;15.746;2024-02-26T10:28:25;3.90;99.90
13482;DHT22;6813;60.352;15.746;2024-02-26T10:30:51;4.00;99.90
13482;DHT22;6813;60.352;15.746;2024-02-26T10:33:18;3.90;99.90
13482;DHT22;6813;60.352;15.746;2024-02-26T10:35:47;3.80;99.90
13482;DHT22;6813;60.352;15.746;2024-02-26T10:38:13;3.70;99.90
13482;DHT22;6813;60.352;15.746;2024-02-26T10:40:39;3.80;99.90
13482;DHT22;6813;60.352;15.746;2024-02-26T10:43:04;3.80;99.90
13482;DHT22;6813;60.352;15.746;2024-02-26T10:45:32;3.70;99.90
13482;DHT22;6813;60.352;15.746;2024-02-26T10:47:57;3.70;99.90
13482;DHT22;6813;60.352;15.746;2024-02-26T10:50:24;3.70;99.90
13482;DHT22;6813;60.352;15.746;2024-02-26T10:52:52;3.80;99.90
13482;DHT22;6813;60.352;15.746;2024-02-26T10:55:21;4.00;99.90
13482;DHT22;6813;60.352;15.746;2024-02-26T10:57:50;4.10;99.90
13482;DHT22;6813;60.352;15.746;2024-02-26T11:00:18;4.10;99.90
13482;DHT22;6813;60.352;15.746;2024-02-26T11:02:45;4.20;99.90
13482;DHT22;6813;60.352;15.746;2024-02-26T11:05:14;4.20;99.90
13482;DHT22;6813;60.352;15.746;2024-02-26T11:07:41;4.30;99.90
13482;DHT22;6813;60.352;15.746;2024-02-26T11:10:08;4.30;99.90
13482;DHT22;6813;60.352;15.746;2024-02-26T11:12:35;4.30;99.90
13482;DHT22;6813;60.352;15.746;2024-02-26T11:15:03;4.30;99.90
13482;DHT22;6813;60.352;15.746;2024-02-26T11:17:29;4.20;99.90
13482;DHT22;6813;60.352;15.746;2024-02-26T11:19:58;4.20;99.90
13482;DHT22;6813;60.352;15.746;2024-02-26T11:22:27;4.30;99.90
13482;DHT22;6813;60.352;15.746;2024-02-26T11:24:56;4.30;99.90
13482;DHT22;6813;60.352;15.746;2024-02-26T11:27:37;4.30;99.90
13482;DHT22;6813;60.352;15.746;2024-02-26T11:30:05;4.30;99.90
13482;DHT22;6813;60.352;15.746;2024-02-26T11:32:34;4.40;99.90
13482;DHT22;6813;60.352;15.746;2024-02-26T11:35:01;4.30;99.90
13482;DHT22;6813;60.352;15.746;2024-02-26T11:37:27;4.30;99.90
13482;DHT22;6813;60.352;15.746;2024-02-26T11:39:53;4.10;99.90
13482;DHT22;6813;60.352;15.746;2024-02-26T11:42:23;3.90;99.90
13482;DHT22;6813;60.352;15.746;2024-02-26T11:44:54;3.90;99.90
13482;DHT22;6813;60.352;15.746;2024-02-26T11:47:22;4.10;99.90
13482;DHT22;6813;60.352;15.746;2024-02-26T11:49:49;4.20;99.90
13482;DHT22;6813;60.352;15.746;2024-02-26T11:52:15;4.20;99.90
13482;DHT22;6813;60.352;15.746;2024-02-26T11:54:51;4.20;99.90
13482;DHT22;6813;60.352;15.746;2024-02-26T11:57:30;4.10;99.90
13482;DHT22;6813;60.352;15.746;2024-02-26T12:05:13;4.10;99.90
13482;DHT22;6813;60.352;15.746;2024-02-26T12:07:44;4.00;99.90
13482;DHT22;6813;60.352;15.746;2024-02-26T12:12:59;3.90;99.90
13482;DHT22;6813;60.352;15.746;2024-02-26T12:15:56;3.80;99.90
13482;DHT22;6813;60.352;15.746;2024-02-26T12:18:22;3.80;99.90
13482;DHT22;6813;60.352;15.746;2024-02-26T12:21:02;3.90;99.90
13482;DHT22;6813;60.352;15.746;2024-02-26T12:23:28;4.10;99.90
13482;DHT22;6813;60.352;15.746;2024-02-26T12:25:58;4.20;99.90
13482;DHT22;6813;60.352;15.746;2024-02-26T12:28:30;4.20;99.90
13482;DHT22;6813;60.352;15.746;2024-02-26T12:30:56;4.20;99.90
13482;DHT22;6813;60.352;15.746;2024-02-26T12:33:25;4.20;99.90
13482;DHT22;6813;60.352;15.746;2024-02-26T12:35:52;4.10;99.90
13482;DHT22;6813;60.352;15.746;2024-02-26T12:38:18;4.00;99.90
13482;DHT22;6813;60.352;15.746;2024-02-26T12:40:44;4.00;99.90
13482;DHT22;6813;60.352;15.746;2024-02-26T12:43:10;3.90;99.90
13482;DHT22;6813;60.352;15.746;2024-02-26T12:45:41;3.80;99.90
13482;DHT22;6813;60.352;15.746;2024-02-26T12:48:08;3.60;99.90
13482;DHT22;6813;60.352;15.746;2024-02-26T12:50:34;3.60;99.90
13482;DHT22;6813;60.352;15.746;2024-02-26T12:53:02;3.70;99.90
13482;DHT22;6813;60.352;15.746;2024-02-26T12:55:28;3.80;99.90
13482;DHT22;6813;60.352;15.746;2024-02-26T12:57:54;3.90;99.90
13482;DHT22;6813;60.352;15.746;2024-02-26T13:00:25;3.90;99.90
13482;DHT22;6813;60.352;15.746;2024-02-26T13:02:52;3.90;99.90
13482;DHT22;6813;60.352;15.746;2024-02-26T13:05:20;3.90;99.90
13482;DHT22;6813;60.352;15.746;2024-02-26T13:07:47;3.80;99.90
13482;DHT22;6813;60.352;15.746;2024-02-26T13:10:13;3.70;99.90
13482;DHT22;6813;60.352;15.746;2024-02-26T13:12:45;3.60;99.90
13482;DHT22;6813;60.352;15.746;2024-02-26T13:15:16;3.50;99.90
13482;DHT22;6813;60.352;15.746;2024-02-26T13:17:43;3.50;99.90
13482;DHT22;6813;60.352;15.746;2024-02-26T13:20:09;3.40;99.90
13482;DHT22;6813;60.352;15.746;2024-02-26T13:22:39;3.40;99.90
13482;DHT22;6813;60.352;15.746;2024-02-26T13:25:05;3.50;99.90
13482;DHT22;6813;60.352;15.746;2024-02-26T13:27:33;3.60;99.90
13482;DHT22;6813;60.352;15.746;2024-02-26T13:30:12;3.70;99.90
13482;DHT22;6813;60.352;15.746;2024-02-26T13:32:39;3.70;99.90
13482;DHT22;6813;60.352;15.746;2024-02-26T13:35:10;3.80;99.90
13482;DHT22;6813;60.352;15.746;2024-02-26T13:37:36;4.00;99.90
13482;DHT22;6813;60.352;15.746;2024-02-26T13:40:12;4.00;99.90
13482;DHT22;6813;60.352;15.746;2024-02-26T13:42:38;4.10;99.90
13482;DHT22;6813;60.352;15.746;2024-02-26T13:45:05;3.90;99.90
13482;DHT22;6813;60.352;15.746;2024-02-26T13:47:34;3.70;99.90
13482;DHT22;6813;60.352;15.746;2024-02-26T13:50:00;3.70;99.90
13482;DHT22;6813;60.352;15.746;2024-02-26T13:52:26;3.70;99.90
13482;DHT22;6813;60.352;15.746;2024-02-26T13:54:52;3.80;99.90
13482;DHT22;6813;60.352;15.746;2024-02-26T13:57:19;3.90;99.90
13482;DHT22;6813;60.352;15.746;2024-02-26T13:59:45;3.90;99.90
13482;DHT22;6813;60.352;15.746;2024-02-26T14:02:11;3.90;99.90
13482;DHT22;6813;60.352;15.746;2024-02-26T14:04:37;3.90;99.90
13482;DHT22;6813;60.352;15.746;2024-02-26T14:07:03;3.70;99.90
13482;DHT22;6813;60.352;15.746;2024-02-26T14:09:29;3.70;99.90
13482;DHT22;6813;60.352;15.746;2024-02-26T14:11:55;3.70;99.90
13482;DHT22;6813;60.352;15.746;2024-02-26T14:14:21;3.60;99.90
13482;DHT22;6813;60.352;15.746;2024-02-26T14:16:47;3.70;99.90
13482;DHT22;6813;60.352;15.746;2024-02-26T14:19:12;3.70;99.90
13482;DHT22;6813;60.352;15.746;2024-02-26T14:21:38;3.70;99.90
13482;DHT22;6813;60.352;15.746;2024-02-26T14:24:04;3.70;99.90
13482;DHT22;6813;60.352;15.746;2024-02-26T14:26:30;3.70;99.90
13482;DHT22;6813;60.352;15.746;2024-02-26T14:28:55;3.50;99.90
13482;DHT22;6813;60.352;15.746;2024-02-26T14:31:21;3.30;99.90
13482;DHT22;6813;60.352;15.746;2024-02-26T14:33:47;3.40;99.90
13482;DHT22;6813;60.352;15.746;2024-02-26T14:36:13;3.40;99.90
13482;DHT22;6813;60.352;15.746;2024-02-26T14:38:39;3.40;99.90
13482;DHT22;6813;60.352;15.746;2024-02-26T14:41:05;3.40;99.90
13482;DHT22;6813;60.352;15.746;2024-02-26T14:43:31;3.40;99.90
13482;DHT22;6813;60.352;15.746;2024-02-26T14:45:58;3.50;99.90
13482;DHT22;6813;60.352;15.746;2024-02-26T14:48:24;3.60;99.90
13482;DHT22;6813;60.352;15.746;2024-02-26T14:50:50;3.50;99.90
13482;DHT22;6813;60.352;15.746;2024-02-26T14:53:17;3.50;99.90
13482;DHT22;6813;60.352;15.746;2024-02-26T14:55:43;3.50;99.90
13482;DHT22;6813;60.352;15.746;2024-02-26T14:58:08;3.50;99.90
13482;DHT22;6813;60.352;15.746;2024-02-26T15:00:36;3.40;99.90
13482;DHT22;6813;60.352;15.746;2024-02-26T15:03:02;3.30;99.90
13482;DHT22;6813;60.352;15.746;2024-02-26T15:05:28;3.40;99.90
13482;DHT22;6813;60.352;15.746;2024-02-26T15:07:54;3.50;99.90
13482;DHT22;6813;60.352;15.746;2024-02-26T15:10:19;3.50;99.90
13482;DHT22;6813;60.352;15.746;2024-02-26T15:12:45;3.40;99.90
13482;DHT22;6813;60.352;15.746;2024-02-26T15:15:11;3.30;99.90
13482;DHT22;6813;60.352;15.746;2024-02-26T15:17:37;3.10;99.90
13482;DHT22;6813;60.352;15.746;2024-02-26T15:20:03;3.10;99.90
13482;DHT22;6813;60.352;15.746;2024-02-26T15:22:29;3.10;99.90
13482;DHT22;6813;60.352;15.746;2024-02-26T15:24:54;3.00;99.90
13482;DHT22;6813;60.352;15.746;2024-02-26T15:27:20;3.10;99.90
13482;DHT22;6813;60.352;15.746;2024-02-26T15:29:46;3.20;99.90
13482;DHT22;6813;60.352;15.746;2024-02-26T15:32:11;3.20;99.90
13482;DHT22;6813;60.352;15.746;2024-02-26T15:34:37;3.10;99.90
13482;DHT22;6813;60.352;15.746;2024-02-26T15:37:03;3.10;99.90
13482;DHT22;6813;60.352;15.746;2024-02-26T15:39:29;3.10;99.90
13482;DHT22;6813;60.352;15.746;2024-02-26T15:41:55;3.20;99.90
13482;DHT22;6813;60.352;15.746;2024-02-26T15:44:22;3.30;99.90
13482;DHT22;6813;60.352;15.746;2024-02-26T15:46:48;3.20;99.90
13482;DHT22;6813;60.352;15.746;2024-02-26T15:49:14;3.30;99.90